Date,TemperatureHighF,TemperatureAvgF,TemperatureLowF,DewpointHighF,DewpointAvgF,DewpointLowF,HumidityHigh,HumidityAvg,HumidityLow,PressureMaxIn,PressureMinIn,WindSpeedMaxMPH,WindSpeedAvgMPH,GustSpeedMaxMPH,PrecipitationSumIn
2012-4-20,79,73,64,62,54,48,58,50,44,30.05,29.87,7,3,20,0.01
2012-4-21,85,69,53,48,45,41,72,45,24,30.12,29.99,6,2,14,0.00
2012-4-22,94,74,56,55,49,44,65,43,23,30.85,30.03,4,0,8,0.00
2012-4-23,86,72,61,53,48,41,59,43,25,30.28,30.08,6,2,17,0.00
2012-4-24,91,74,58,62,57,49,86,58,33,30.12,29.92,6,2,15,0.00
2012-4-25,97,80,67,70,65,60,84,64,34,30.00,29.82,6,4,17,0.00
2012-4-26,99,80,66,70,66,61,90,66,32,29.93,29.82,6,3,14,0.00
2012-4-27,96,78,64,68,65,61,93,67,33,29.91,29.78,6,3,17,0.00
2012-4-28,92,79,68,68,66,62,88,66,42,29.92,29.83,8,4,20,0.00
2012-4-29,87,78,72,70,67,63,85,69,46,30.00,29.88,6,4,17,0.00
2012-4-30,92,79,74,71,69,65,88,73,43,30.04,29.89,6,3,17,0.00
2012-5-1,92,79,71,73,68,65,90,71,44,30.03,29.83,6,2,16,0.00
2012-5-2,94,79,72,70,68,66,86,70,44,29.96,29.83,5,2,13,0.00
2012-5-3,95,80,73,70,69,65,87,70,45,30.09,29.89,5,3,14,0.00
2012-5-4,99,83,73,72,69,64,89,65,34,30.82,29.94,6,3,18,0.00
2012-5-5,96,83,73,74,72,69,90,70,46,30.05,29.86,6,2,18,0.00
2012-5-6,95,80,66,72,68,62,93,70,46,30.06,29.89,11,3,28,1.50
2012-5-7,95,81,68,75,70,62,91,72,49,30.10,29.86,9,2,20,0.21
2012-5-8,71,68,66,67,64,63,91,87,81,30.81,29.93,8,3,21,0.38
2012-5-9,86,76,63,66,63,60,92,68,49,30.15,30.00,4,2,11,0.13
2012-5-10,78,71,68,70,66,62,93,84,72,30.02,29.81,6,2,20,1.42
2012-5-11,87,72,63,70,65,61,94,79,50,30.06,29.85,4,1,10,0.21
2012-5-12,86,74,65,66,62,57,91,68,44,30.23,30.06,7,2,14,0.00
2012-5-13,86,74,63,63,60,58,86,64,44,30.29,30.15,5,2,12,0.00
2012-5-14,88,76,67,65,61,58,84,62,39,30.19,30.03,3,1,12,0.13
2012-5-15,77,68,63,66,63,59,94,84,65,30.20,30.07,18,2,128,0.80
2012-5-16,87,74,60,66,61,58,92,67,41,30.20,30.06,4,1,11,0.00
2012-5-17,90,77,63,66,61,58,85,60,37,30.16,30.00,4,1,10,0.00
2012-5-18,90,77,63,69,63,59,91,66,42,30.07,29.93,6,2,13,0.00
2012-5-19,74,74,74,64,64,64,72,72,72,30.01,30.01,3,3,8,0.00
2012-5-20,74,74,74,64,64,64,72,72,72,30.01,30.01,3,3,8,0.00
2012-5-21,74,74,74,64,64,64,72,72,72,30.01,30.01,3,3,8,0.00
2012-5-22,92,77,74,66,63,56,72,63,34,30.01,29.86,4,3,11,0.00
2012-5-23,94,80,71,72,69,58,87,69,47,29.91,29.66,8,4,16,0.00
2012-5-24,96,82,74,74,71,69,85,70,46,29.81,29.69,6,4,16,0.00
2012-5-25,97,83,74,73,71,70,87,69,45,30.01,29.81,7,4,17,0.00
2012-5-26,95,83,75,74,70,66,88,67,44,30.08,29.92,6,3,18,0.00
2012-5-27,94,82,74,71,68,64,87,66,43,30.03,29.86,6,3,13,0.00
2012-5-28,96,83,74,72,70,66,86,65,43,29.99,29.85,4,3,14,0.00
2012-5-29,97,84,75,72,71,67,88,65,43,29.99,29.86,5,2,12,0.00
2012-5-30,97,83,75,74,71,68,87,68,43,29.96,29.77,6,2,15,0.00
2012-5-31,90,80,73,73,68,62,89,68,43,29.96,29.76,9,2,21,0.01
2012-6-1,95,82,71,70,65,60,77,58,39,30.08,29.89,5,2,14,0.00
2012-6-2,97,83,73,72,69,67,88,65,44,30.01,29.85,9,3,17,0.00
2012-6-3,90,82,74,74,70,65,89,70,53,30.01,29.87,7,2,15,0.00
2012-6-4,98,84,73,74,71,55,91,68,42,29.98,29.81,4,2,12,0.00
2012-6-5,98,84,73,74,70,66,91,66,39,29.91,29.77,4,1,9,0.00
2012-6-6,82,82,82,69,69,69,66,66,66,29.85,29.85,2,2,5,0.00
2012-6-7,92,82,72,70,65,62,84,58,42,30.00,29.89,7,3,14,4.79
2012-6-8,90,79,72,71,68,66,84,70,49,30.01,29.89,5,2,11,0.00
2012-6-9,97,83,68,72,67,62,82,62,40,29.93,29.75,4,2,10,0.00
2012-6-10,103,87,74,76,72,66,86,62,36,29.89,29.76,6,3,15,0.00
2012-6-11,104,89,78,74,73,70,83,62,35,30.01,29.87,6,3,14,0.00
2012-6-12,100,86,73,77,72,66,87,66,37,30.08,29.97,13,2,27,0.00
2012-6-13,100,85,73,75,70,64,89,64,34,30.11,29.87,5,2,15,0.00
2012-6-14,99,85,77,74,70,67,83,61,40,29.98,29.86,6,3,15,0.00
2012-6-15,100,86,77,74,70,65,85,62,35,30.03,29.91,5,3,13,0.00
2012-6-16,100,84,74,75,71,21,88,68,6,30.78,29.94,6,2,20,0.00
2012-6-17,99,85,73,74,68,65,89,59,37,30.10,29.87,3,2,11,0.00
2012-6-18,97,83,73,72,67,64,79,60,36,30.01,29.79,5,2,14,0.02
2012-6-19,96,84,74,74,71,67,89,67,43,29.94,29.85,7,3,21,0.00
2012-6-20,94,83,77,74,72,68,87,70,46,30.01,29.91,6,3,14,0.00
2012-6-21,98,84,74,75,70,64,92,65,38,30.06,29.95,6,2,14,0.00
2012-6-22,98,86,73,72,66,63,83,55,33,30.04,29.90,5,1,15,0.00
2012-6-23,83,78,75,65,64,63,69,63,53,29.94,29.92,2,0,4,0.00
2012-6-24,103,93,75,72,67,64,80,44,33,30.04,29.91,4,1,8,0.00
2012-6-25,106,92,78,71,67,62,69,46,27,29.99,29.83,5,1,11,0.00
2012-6-26,110,94,79,71,66,61,62,42,25,29.90,29.75,5,1,13,0.00
2012-6-27,106,93,78,71,68,65,69,46,30,30.00,29.84,5,2,11,0.00
2012-6-28,104,89,77,76,69,62,86,54,27,30.09,29.98,5,2,16,0.00
2012-6-29,95,84,75,76,72,69,88,68,47,30.81,29.92,5,2,12,0.05
2012-6-30,94,83,75,76,72,68,90,71,48,29.99,29.89,4,2,12,0.00
2012-7-1,95,84,73,77,71,68,88,67,43,30.07,29.93,6,2,24,0.34
2012-7-2,99,86,76,77,71,63,93,66,32,30.13,29.99,7,3,17,0.02
2012-7-3,88,78,76,76,72,70,89,83,65,30.11,30.07,4,1,9,0.00
2012-7-4,100,86,77,75,71,65,88,65,33,30.08,29.95,7,3,12,0.00
2012-7-5,103,86,77,74,71,66,86,64,34,30.76,29.99,7,2,21,0.00
2012-7-6,102,88,77,75,70,62,89,60,32,30.12,29.97,4,2,11,0.00
2012-7-7,102,88,76,75,70,64,88,58,33,30.10,29.95,4,2,11,0.00
2012-7-8,101,87,78,74,70,65,84,61,32,30.09,29.96,4,2,14,0.00
2012-7-9,100,85,74,76,72,68,92,69,39,30.06,29.90,9,1,21,0.56
2012-7-10,93,84,72,76,73,70,96,71,54,30.01,29.91,3,1,11,0.02
2012-7-11,85,76,75,76,74,71,94,91,76,30.01,29.94,4,1,10,1.03
2012-7-12,96,79,74,76,73,70,95,83,45,30.03,29.92,6,1,28,0.01
2012-7-13,100,85,77,77,74,69,91,71,42,30.07,29.93,5,1,17,0.00
2012-7-14,88,84,75,77,74,72,92,74,64,30.08,30.01,2,0,5,0.00
2012-7-15,88,88,88,75,75,75,65,65,65,30.07,30.07,0,0,2,0.00
2012-7-31,101,84,76,76,73,67,91,72,35,30.11,30.01,5,1,11,0.01
2012-8-1,103,77,67,74,65,58,93,69,35,30.10,29.92,4,1,11,0.00
2012-8-2,97,80,68,69,66,62,84,64,33,29.95,29.78,8,4,14,0.00
2012-8-3,99,79,66,70,66,62,90,66,31,29.90,29.78,6,3,12,0.00
2012-8-4,96,78,64,68,65,61,93,66,33,29.87,29.74,8,3,15,0.00
2012-8-5,92,78,68,69,66,63,88,67,42,29.88,29.79,10,4,19,0.00
2012-8-6,95,82,72,72,67,63,85,62,39,29.97,29.84,7,3,14,7.84
2012-8-7,84,81,79,73,72,71,76,73,66,29.97,29.93,1,0,3,0.00
2012-8-8,104,89,75,74,70,66,86,57,35,30.00,29.88,4,2,7,0.00
2012-8-9,105,89,76,76,71,66,88,59,33,30.00,29.85,4,1,7,0.00
2012-8-10,108,87,77,75,69,62,84,57,24,29.95,29.78,8,2,23,0.00
2012-8-11,80,80,80,70,70,69,71,70,70,29.87,29.86,2,1,4,0.00
2012-8-12,104,91,78,75,70,65,86,54,33,29.98,29.84,6,2,11,0.00
2012-9-4,101,87,75,74,70,60,92,61,27,29.93,29.76,5,3,12,0.00
2012-9-5,101,86,72,73,68,58,95,61,27,29.87,29.74,4,2,12,0.00
2012-9-6,101,87,73,74,68,58,94,59,26,29.92,29.78,3,1,14,0.00
2012-9-7,102,87,72,75,67,57,95,57,24,29.88,29.73,3,1,8,0.00
2012-9-8,92,82,76,71,60,46,83,51,27,30.00,29.78,7,3,18,0.00
2012-9-9,94,80,64,50,44,36,53,31,14,30.11,29.96,5,2,15,0.00
2012-9-10,95,80,65,61,50,39,66,38,16,30.08,29.93,8,1,9,0.00
2012-9-11,94,80,66,70,60,48,85,55,21,30.04,29.90,14,2,14,0.00
2012-9-12,100,83,73,74,70,64,93,68,32,30.00,29.84,17,3,17,0.00
2012-9-13,97,80,71,76,72,63,94,78,35,30.11,29.92,21,3,21,7.26
2012-9-14,76,71,0,69,65,0,97,81,73,30.16,30.06,11,2,12,2.08
2012-9-15,82,73,66,68,65,61,86,76,60,30.17,30.03,10,2,10,0.00
2012-9-16,74,68,65,68,65,62,98,91,75,30.06,29.91,9,1,9,1.95
2012-9-17,86,74,67,69,66,62,97,77,47,29.94,29.76,7,0,7,0.00
2012-9-18,89,77,66,69,64,60,92,67,43,30.02,29.84,13,1,13,0.00
2012-9-19,88,79,66,65,61,58,84,56,38,30.10,29.98,10,1,10,0.00
2012-9-20,90,77,67,71,64,58,98,68,40,30.06,29.93,10,1,10,0.00
2012-9-21,91,77,61,64,58,44,88,56,20,29.99,29.89,8,1,8,0.00
2012-9-22,91,80,65,70,62,59,89,57,39,30.07,29.95,9,1,9,0.00
2012-9-23,93,80,67,71,66,60,92,65,35,30.14,30.04,7,1,7,0.00
2012-9-24,92,80,69,73,68,63,98,71,42,30.11,29.93,12,2,12,0.00
2012-9-25,93,80,70,73,67,59,96,69,34,30.00,29.85,14,3,14,0.00
2012-9-26,92,80,70,73,68,62,96,69,42,30.00,29.87,12,2,12,0.00
2012-9-27,93,79,71,74,70,67,92,76,46,30.03,29.89,14,2,14,0.00
2012-9-28,85,76,72,75,72,68,98,89,64,29.99,29.85,13,2,13,2.39
2012-9-29,86,75,70,77,71,66,99,89,63,29.89,29.64,16,2,16,1.01
2012-9-30,82,73,68,66,64,62,83,73,56,29.86,29.74,17,3,18,0.00
2012-10-1,84,65,61,68,61,59,95,88,50,29.88,29.81,4,0,8,0.26
2012-10-2,82,71,63,61,54,47,87,58,30,29.97,29.87,12,2,12,0.00
2012-10-3,87,73,60,65,58,53,82,61,38,29.99,29.90,11,2,13,0.00
2012-10-4,92,79,69,74,70,64,95,76,46,30.06,29.97,17,3,17,0.00
2012-10-5,90,78,68,72,68,64,98,75,44,30.06,29.91,13,2,13,0.00
2012-10-6,79,70,59,68,64,52,96,81,62,30.06,29.92,15,3,16,0.00
2012-10-7,60,56,52,53,47,44,80,73,64,30.19,30.06,16,5,20,0.00
2012-10-8,71,59,52,54,47,40,75,65,51,30.24,30.06,12,2,12,0.00
2012-10-9,83,70,61,68,61,53,91,75,59,30.08,29.89,12,2,12,0.00
2012-10-10,90,78,71,74,71,68,94,79,52,30.07,29.94,10,1,10,0.00
2012-10-11,74,73,73,73,71,69,97,93,88,30.05,30.01,4,0,4,0.01
2012-10-12,89,78,72,74,71,69,97,82,56,30.13,30.00,8,2,14,0.00
2012-10-13,89,79,74,75,73,71,94,82,59,30.06,29.81,18,4,18,0.00
2012-10-14,90,78,70,76,69,57,95,73,50,30.04,29.89,11,1,11,0.15
2012-10-15,80,73,64,58,56,53,72,56,41,30.08,29.95,10,1,10,0.00
2012-10-16,74,68,65,68,61,-100,93,78,65,29.96,29.75,8,-3,8,0.00
2012-10-17,92,75,66,73,67,62,98,79,45,29.76,29.59,8,1,11,0.00
2012-10-18,80,73,63,62,49,43,61,44,29,29.95,29.70,20,5,20,0.00
2012-10-19,84,69,54,47,41,32,58,39,16,30.03,29.89,11,2,11,0.00
2012-10-20,88,74,60,73,63,47,89,70,52,29.91,29.75,13,2,13,0.00
2012-10-21,92,80,73,72,70,65,94,75,43,29.90,29.79,14,4,18,0.00
2012-10-22,90,78,73,73,70,65,93,78,45,29.93,29.83,14,4,17,0.01
2012-10-23,88,76,70,71,68,66,93,78,53,29.94,29.84,12,2,12,0.00
2012-10-24,88,75,66,69,65,60,96,73,44,29.96,29.80,12,2,12,0.00
2012-10-25,90,76,67,70,67,58,96,76,46,29.92,29.77,14,2,14,0.00
2012-10-26,69,57,48,59,46,38,91,67,57,30.22,29.92,18,5,18,0.52
2012-10-27,62,54,47,38,34,32,58,48,33,30.29,30.12,16,3,16,0.00
2012-10-28,67,57,48,36,33,30,59,42,28,30.27,30.13,13,2,13,0.00
2012-10-29,70,60,45,42,38,32,65,45,31,30.29,30.11,7,1,8,0.00
2012-10-30,77,60,48,55,47,38,80,62,45,30.12,29.95,3,0,10,0.00
2012-10-31,84,70,58,67,59,53,93,71,44,30.04,29.93,7,0,7,0.00
2012-11-1,85,72,62,69,63,56,96,74,42,30.05,29.93,10,1,10,0.00
2012-11-2,85,72,62,68,62,58,96,74,42,30.02,29.89,11,2,11,0.00
2012-11-3,87,72,64,69,63,57,95,78,39,30.04,29.92,13,1,13,0.00
2012-11-4,85,71,62,64,61,56,96,72,44,30.08,29.98,7,1,7,0.27
2012-11-5,87,73,58,66,60,49,96,67,44,30.05,29.90,12,1,12,0.00
2012-11-6,79,65,55,50,44,38,65,47,28,30.17,30.04,10,1,10,0.00
2012-11-7,84,69,53,55,51,44,76,53,33,30.17,30.02,9,1,9,0.00
2012-11-8,83,69,57,62,58,52,97,72,36,30.11,29.96,16,3,16,0.00
2012-11-9,84,71,59,66,61,57,96,73,40,30.05,29.91,18,3,18,0.00
2012-11-10,83,72,62,65,62,57,92,73,43,30.00,29.83,13,4,19,0.00
2012-11-11,83,73,66,66,58,33,92,63,30,30.14,29.81,18,3,18,0.00
2012-11-12,66,56,48,41,30,21,61,39,20,30.45,30.14,17,4,17,0.00
2012-11-13,54,49,45,37,29,24,61,47,33,30.47,30.31,15,3,15,0.00
2012-11-14,62,54,49,39,37,34,67,54,41,30.41,30.26,7,1,7,0.00
2012-11-15,61,53,46,41,39,36,76,59,40,30.30,30.20,7,1,7,0.00
2012-11-16,68,59,51,42,38,32,57,46,35,30.35,30.24,15,3,16,0.00
2012-11-17,69,56,43,40,35,30,62,46,28,30.37,30.24,9,1,9,0.00
2012-11-18,74,61,47,54,48,38,87,65,42,30.27,30.15,10,2,10,0.00
2012-11-19,72,62,54,57,54,51,89,76,59,30.24,30.11,9,1,9,0.00
2012-11-20,81,67,55,62,57,53,95,74,48,30.20,30.08,10,0,10,0.00
2012-11-21,79,67,57,60,56,49,93,73,36,30.24,30.12,9,1,9,0.00
2012-11-22,78,67,54,60,57,53,97,71,49,30.13,30.02,6,1,15,0.00
2012-11-23,72,63,57,62,52,32,93,69,38,30.35,30.09,15,2,15,0.00
2012-11-24,67,56,48,33,28,24,47,34,21,30.39,30.15,15,2,15,0.00
2012-11-25,74,59,43,60,48,29,88,67,47,30.15,29.92,14,2,14,0.00
2012-11-26,79,67,58,65,61,50,97,82,59,30.11,29.91,14,2,14,0.08
2012-11-27,62,53,45,49,42,36,85,66,47,30.35,30.10,16,3,16,0.07
2012-11-28,67,50,41,49,42,37,89,73,48,30.43,30.27,4,1,9,0.00
2012-11-29,72,59,45,59,51,41,95,77,55,30.28,30.11,10,1,10,0.00
2012-11-30,79,70,58,64,62,57,95,76,55,30.15,30.01,12,2,12,0.00
2012-12-1,81,72,67,67,65,62,93,82,59,30.10,29.98,13,3,13,0.00
2012-12-2,80,71,66,66,64,60,92,81,55,30.12,29.99,11,3,12,0.00
2012-12-3,81,70,64,66,63,59,95,81,55,30.03,29.92,13,2,13,0.00
2012-12-4,76,66,57,66,58,46,96,77,38,30.18,29.99,10,1,10,0.00
2012-12-5,74,60,48,46,38,32,67,45,23,30.24,30.03,8,1,8,0.00
2012-12-6,73,59,49,58,52,42,96,79,48,30.03,29.81,11,1,11,0.00
2012-12-7,77,67,56,65,61,54,97,83,62,29.86,29.74,10,1,10,0.00
2012-12-8,79,70,63,68,64,60,95,84,63,29.88,29.75,12,2,12,0.00
2012-12-9,79,70,55,69,64,48,94,82,63,29.88,29.73,12,2,15,0.05
2012-12-10,55,46,37,48,26,16,76,45,33,30.12,29.86,24,4,24,0.00
2012-12-11,56,42,31,25,23,20,71,49,29,30.24,30.09,12,1,12,0.00
2012-12-12,62,47,34,28,24,21,62,42,24,30.34,30.20,12,1,12,0.00
2012-12-13,65,53,38,49,40,28,80,63,48,30.29,30.15,11,2,11,0.00
2012-12-14,71,62,55,65,57,49,92,82,72,30.16,29.84,8,3,15,0.00
2012-12-15,71,66,62,66,56,48,97,70,46,29.94,29.81,8,2,9,0.02
2012-12-16,70,63,52,64,53,45,96,72,44,29.85,29.74,7,1,7,0.03
2012-12-17,76,59,45,46,36,31,81,47,20,29.98,29.84,4,0,11,0.00
2012-12-18,82,63,46,63,42,30,91,49,30,29.91,29.75,13,2,13,0.00
2012-12-19,82,72,65,67,64,49,96,79,50,29.83,29.60,17,4,17,0.00
2012-12-20,69,50,36,47,14,5,46,25,13,30.48,29.83,24,4,24,0.00
2012-12-21,62,46,31,23,13,9,52,28,13,30.52,30.36,10,1,10,0.00
2012-12-22,66,55,42,55,36,11,79,50,27,30.37,30.08,16,2,16,0.00
2012-12-23,67,62,57,58,56,54,94,81,69,30.08,29.86,12,2,12,0.00
2012-12-24,69,59,50,54,41,33,91,56,27,29.97,29.69,15,3,15,0.00
2012-12-25,71,57,35,62,38,20,88,52,19,30.12,29.56,23,4,23,0.00
2012-12-26,50,37,28,22,20,17,63,50,32,30.28,30.10,17,3,17,0.00
2012-12-27,46,39,30,44,32,20,96,76,61,30.12,29.82,10,3,10,0.00
2012-12-28,71,53,40,48,36,25,96,60,19,30.14,29.79,19,3,19,0.00
2012-12-29,51,42,34,26,22,18,59,45,33,30.47,30.13,21,2,21,0.00
2012-12-30,54,45,36,48,30,22,94,57,34,30.46,30.16,14,3,14,0.00
2012-12-31,61,55,48,60,54,47,97,96,94,30.17,29.88,10,2,10,0.23
2013-1-1,60,51,42,59,47,38,96,87,71,30.22,29.92,16,3,16,0.15